Time;durP1;ratioP1;P1;durP2;ratioP2;P2;SDS_P1;SDS_P2;PMS_P1;PMS_P2;Temp;Humidity;BMP_temperature;BMP_pressure;BME280_temperature;BME280_humidity;BME280_pressure;Samples;Min_cycle;Max_cycle;Signal;HPM_P1;HPM_P2
2022/03/02 00:00:19;;;;;;;29.67;26.00;;;4.90;99.90;;;;;;4968117;28;20489;-72
2022/03/02 00:02:46;;;;;;;28.93;25.93;;;4.80;99.90;;;;;;5001074;28;20549;-72
2022/03/02 00:05:14;;;;;;;29.17;25.90;;;4.70;99.90;;;;;;4996468;28;20488;-72
2022/03/02 00:07:41;;;;;;;31.40;26.60;;;4.60;99.90;;;;;;4993110;28;20870;-73
2022/03/02 00:10:09;;;;;;;34.00;26.57;;;4.60;99.90;;;;;;4991917;28;20467;-71
2022/03/02 00:12:36;;;;;;;30.63;27.70;;;4.50;99.90;;;;;;4999369;28;20513;-70
2022/03/02 00:15:04;;;;;;;31.50;28.30;;;4.40;99.90;;;;;;4999242;28;20815;-72
2022/03/02 00:17:32;;;;;;;28.87;26.07;;;4.30;99.90;;;;;;4997727;28;20465;-72
2022/03/02 00:19:59;;;;;;;30.50;27.30;;;4.30;99.90;;;;;;4996992;28;21089;-71
2022/03/02 00:22:25;;;;;;;32.70;27.30;;;4.10;99.90;;;;;;4995944;28;20461;-72
2022/03/02 00:24:52;;;;;;;32.00;27.27;;;4.00;99.90;;;;;;4986974;28;20482;-73
2022/03/02 00:27:20;;;;;;;28.83;26.10;;;3.90;99.90;;;;;;4993301;28;20470;-71
2022/03/02 00:29:47;;;;;;;29.00;26.37;;;3.80;99.90;;;;;;4995868;28;20469;-71
2022/03/02 00:32:14;;;;;;;30.23;27.13;;;3.70;99.90;;;;;;4994192;28;20972;-70
2022/03/02 00:34:42;;;;;;;31.97;28.67;;;3.70;99.90;;;;;;4994469;28;20852;-70
2022/03/02 00:37:09;;;;;;;32.00;27.40;;;3.70;99.90;;;;;;4997949;28;20497;-72
2022/03/02 00:39:36;;;;;;;30.43;27.43;;;3.60;99.90;;;;;;4999309;28;20461;-71
2022/03/02 00:42:06;;;;;;;29.93;26.70;;;3.60;99.90;;;;;;4995983;28;20465;-72
2022/03/02 00:44:33;;;;;;;30.50;27.00;;;3.50;99.90;;;;;;4992984;28;20825;-72
2022/03/02 00:47:00;;;;;;;28.57;25.73;;;3.50;99.90;;;;;;5000806;28;20540;-70
2022/03/02 00:49:28;;;;;;;29.97;26.90;;;3.40;99.90;;;;;;4993079;28;20467;-71
2022/03/02 00:51:57;;;;;;;30.57;26.57;;;3.40;99.90;;;;;;4995753;28;20457;-72
2022/03/02 00:54:24;;;;;;;30.27;27.20;;;3.30;99.90;;;;;;4996654;28;20521;-70
2022/03/02 00:56:51;;;;;;;30.90;27.30;;;3.20;99.90;;;;;;4997089;28;20497;-71
2022/03/02 00:59:18;;;;;;;30.17;27.20;;;3.20;99.90;;;;;;4995823;28;20466;-72
2022/03/02 01:01:45;;;;;;;29.43;26.73;;;3.10;99.90;;;;;;4994935;28;20466;-70
2022/03/02 01:04:12;;;;;;;31.20;26.20;;;3.10;99.90;;;;;;4998897;28;20454;-70
2022/03/02 01:06:39;;;;;;;31.90;28.70;;;3.10;99.90;;;;;;4992313;28;20931;-70
2022/03/02 01:09:07;;;;;;;30.83;27.57;;;3.10;99.90;;;;;;5000594;28;20461;-71
2022/03/02 01:11:34;;;;;;;31.23;27.70;;;3.00;99.90;;;;;;4998902;28;20501;-71
2022/03/02 01:14:01;;;;;;;28.80;25.93;;;2.90;99.90;;;;;;4995863;28;21007;-72
2022/03/02 01:16:28;;;;;;;28.63;25.77;;;2.80;99.90;;;;;;4989662;28;20485;-71
2022/03/02 01:18:55;;;;;;;29.13;26.23;;;2.80;99.90;;;;;;4998647;28;20478;-72
2022/03/02 01:21:22;;;;;;;29.50;26.50;;;2.80;99.90;;;;;;4997171;28;20477;-71
2022/03/02 01:23:49;;;;;;;29.20;26.10;;;2.80;99.90;;;;;;4996203;28;20493;-71
2022/03/02 01:26:17;;;;;;;30.53;27.30;;;2.60;99.90;;;;;;4994825;28;20474;-71
2022/03/02 01:28:44;;;;;;;29.43;26.30;;;2.60;99.90;;;;;;4995046;28;20480;-72
2022/03/02 01:31:11;;;;;;;30.33;27.23;;;2.50;99.90;;;;;;4991067;28;21085;-71
2022/03/02 01:33:38;;;;;;;33.50;27.30;;;2.40;99.90;;;;;;4995922;28;21140;-70
2022/03/02 01:36:05;;;;;;;29.37;26.43;;;2.40;99.90;;;;;;4991481;28;20492;-72
2022/03/02 01:38:32;;;;;;;29.43;26.40;;;2.30;99.90;;;;;;4995450;28;20470;-70
2022/03/02 01:40:59;;;;;;;30.17;27.20;;;2.30;99.90;;;;;;4994809;28;20479;-70
2022/03/02 01:43:28;;;;;;;29.50;26.67;;;2.30;99.90;;;;;;4998457;28;20465;-70
2022/03/02 01:45:55;;;;;;;30.83;27.03;;;2.30;99.90;;;;;;4994169;28;20470;-70
2022/03/02 01:48:22;;;;;;;28.60;25.93;;;2.30;99.90;;;;;;4997640;28;21125;-71
2022/03/02 01:50:49;;;;;;;29.63;26.73;;;2.40;99.90;;;;;;4996418;28;20465;-70
2022/03/02 01:53:16;;;;;;;28.07;25.37;;;2.40;99.90;;;;;;4998603;28;21001;-71
2022/03/02 01:55:43;;;;;;;28.40;25.70;;;2.30;99.90;;;;;;4996707;28;20485;-70
2022/03/02 01:58:10;;;;;;;29.70;26.83;;;2.30;99.90;;;;;;4999431;28;21074;-72
2022/03/02 02:00:39;;;;;;;29.03;26.00;;;2.20;99.90;;;;;;5002207;28;20478;-69
2022/03/02 02:03:06;;;;;;;30.63;27.33;;;2.20;99.90;;;;;;4995852;28;20469;-70
2022/03/02 02:05:33;;;;;;;29.30;26.00;;;2.10;99.90;;;;;;4997748;28;20686;-71
2022/03/02 02:08:00;;;;;;;29.00;26.00;;;2.10;99.90;;;;;;4997940;28;20471;-69
2022/03/02 02:10:27;;;;;;;28.13;25.50;;;2.00;99.90;;;;;;4996737;28;20466;-69
2022/03/02 02:12:54;;;;;;;27.70;25.10;;;2.10;99.90;;;;;;5001428;28;20979;-70
2022/03/02 02:15:21;;;;;;;27.80;25.23;;;2.10;99.90;;;;;;4997815;28;20497;-71
2022/03/02 02:17:49;;;;;;;27.07;24.80;;;2.10;99.90;;;;;;4998391;28;20500;-70
2022/03/02 02:20:16;;;;;;;26.03;23.43;;;2.10;99.90;;;;;;4998173;28;20974;-71
2022/03/02 02:22:46;;;;;;;27.33;24.90;;;2.20;99.90;;;;;;4990876;28;20498;-72
2022/03/02 02:25:14;;;;;;;26.87;24.20;;;2.30;99.90;;;;;;4994489;28;20479;-71
2022/03/02 02:27:44;;;;;;;27.30;24.77;;;2.30;99.90;;;;;;4996461;28;20478;-69
2022/03/02 02:30:13;;;;;;;27.57;25.03;;;2.20;99.90;;;;;;5002339;28;20541;-71
2022/03/02 02:32:40;;;;;;;28.30;25.73;;;2.10;99.90;;;;;;4998986;28;20461;-71
2022/03/02 02:35:10;;;;;;;28.43;25.80;;;2.10;99.90;;;;;;4998272;28;21005;-71
2022/03/02 02:37:38;;;;;;;27.90;25.03;;;2.10;99.90;;;;;;4996056;28;21022;-70
2022/03/02 02:40:09;;;;;;;27.53;25.13;;;2.10;99.90;;;;;;4998885;28;20476;-71
2022/03/02 02:42:36;;;;;;;29.20;26.10;;;2.00;99.90;;;;;;5001323;28;20554;-70
2022/03/02 02:45:04;;;;;;;28.43;25.80;;;1.90;99.90;;;;;;5003732;28;20469;-70
2022/03/02 02:47:31;;;;;;;27.90;24.80;;;1.90;99.90;;;;;;4993774;28;20469;-70
2022/03/02 02:49:58;;;;;;;27.23;24.73;;;2.00;99.90;;;;;;4996667;28;20467;-70
2022/03/02 02:52:25;;;;;;;25.83;23.70;;;2.00;99.90;;;;;;4999778;28;20564;-70
2022/03/02 02:54:53;;;;;;;27.27;24.97;;;1.90;99.90;;;;;;4999960;28;21005;-70
2022/03/02 02:57:21;;;;;;;26.30;23.90;;;1.90;99.90;;;;;;5002592;28;20466;-72
2022/03/02 02:59:48;;;;;;;27.53;25.03;;;1.90;99.90;;;;;;4999989;28;20865;-70
2022/03/02 03:02:15;;;;;;;28.73;25.83;;;1.80;99.90;;;;;;4999022;28;20849;-71
2022/03/02 03:04:42;;;;;;;27.17;24.87;;;1.90;99.90;;;;;;4994794;28;20462;-72
2022/03/02 03:07:08;;;;;;;27.53;24.90;;;1.90;99.90;;;;;;4999083;28;20474;-69
2022/03/02 03:09:35;;;;;;;27.50;24.83;;;1.80;99.90;;;;;;4995058;28;20469;-70
2022/03/02 03:12:02;;;;;;;27.17;24.23;;;1.80;99.90;;;;;;4999475;28;20468;-70
2022/03/02 03:14:30;;;;;;;28.07;24.70;;;1.90;99.90;;;;;;4999966;28;20462;-73
2022/03/02 03:16:57;;;;;;;27.67;24.90;;;1.90;99.90;;;;;;4996285;28;20493;-70
2022/03/02 03:19:24;;;;;;;27.03;24.63;;;1.90;99.90;;;;;;4997343;28;20467;-70
2022/03/02 03:21:51;;;;;;;27.00;24.10;;;1.90;99.90;;;;;;4995293;28;20504;-70
2022/03/02 03:24:18;;;;;;;28.80;25.43;;;1.90;99.90;;;;;;5000594;28;20497;-70
2022/03/02 03:26:44;;;;;;;27.73;24.63;;;1.90;99.90;;;;;;5002718;28;20882;-70
2022/03/02 03:29:11;;;;;;;27.17;24.83;;;1.90;99.90;;;;;;4993768;28;20513;-69
2022/03/02 03:31:40;;;;;;;27.97;25.20;;;2.00;99.90;;;;;;4996985;28;20465;-70
2022/03/02 03:34:06;;;;;;;27.70;25.13;;;2.00;99.90;;;;;;4999579;28;20473;-71
2022/03/02 03:36:34;;;;;;;28.10;24.23;;;2.00;99.90;;;;;;4998599;28;20505;-71
2022/03/02 03:39:00;;;;;;;26.87;23.77;;;2.00;99.90;;;;;;4988082;28;20462;-71
2022/03/02 03:41:28;;;;;;;25.63;23.23;;;2.00;99.90;;;;;;5000598;28;20876;-71
2022/03/02 03:43:55;;;;;;;28.77;23.93;;;2.10;99.90;;;;;;4999846;28;20468;-71
2022/03/02 03:46:22;;;;;;;29.83;24.07;;;2.10;99.90;;;;;;5000327;28;20478;-71
2022/03/02 03:48:50;;;;;;;27.03;23.97;;;2.10;99.90;;;;;;5000137;28;20906;-70
2022/03/02 03:51:17;;;;;;;25.83;23.03;;;2.20;99.90;;;;;;4995981;28;20973;-71
2022/03/02 03:53:44;;;;;;;26.13;23.87;;;2.20;99.90;;;;;;5000123;28;20631;-72
2022/03/02 03:56:11;;;;;;;25.93;23.43;;;2.30;99.90;;;;;;4997682;28;20503;-70
2022/03/02 03:58:39;;;;;;;26.93;24.20;;;2.30;99.90;;;;;;4996706;28;20469;-71
2022/03/02 04:01:06;;;;;;;26.83;24.23;;;2.40;99.90;;;;;;5006180;28;20465;-70
2022/03/02 04:03:35;;;;;;;26.73;23.93;;;2.40;99.90;;;;;;4999717;28;20466;-71
2022/03/02 04:06:05;;;;;;;29.10;23.40;;;2.50;99.90;;;;;;4998660;28;20866;-71
2022/03/02 04:08:32;;;;;;;25.70;23.50;;;2.50;99.90;;;;;;4998039;28;20547;-71
2022/03/02 04:11:00;;;;;;;29.10;24.40;;;2.50;99.90;;;;;;4999265;28;20482;-73
2022/03/02 04:13:27;;;;;;;26.60;23.60;;;2.60;99.90;;;;;;4996268;28;20469;-70
2022/03/02 04:15:54;;;;;;;24.67;22.57;;;2.60;99.90;;;;;;4992363;28;20494;-72
2022/03/02 04:18:21;;;;;;;27.00;24.03;;;2.70;99.90;;;;;;5000950;28;20473;-73
2022/03/02 04:20:48;;;;;;;27.07;24.70;;;2.70;99.90;;;;;;4995616;28;20478;-73
2022/03/02 04:23:16;;;;;;;27.13;24.50;;;2.80;99.90;;;;;;4993549;28;21020;-72
2022/03/02 04:25:43;;;;;;;25.73;23.40;;;2.80;99.90;;;;;;4996784;28;20501;-70
2022/03/02 04:28:10;;;;;;;27.77;24.80;;;2.90;99.90;;;;;;4997123;28;20973;-70
2022/03/02 04:30:37;;;;;;;27.50;24.57;;;2.90;99.90;;;;;;4997782;28;20458;-70
2022/03/02 04:33:04;;;;;;;24.80;22.30;;;2.90;99.90;;;;;;4994058;28;20477;-71
2022/03/02 04:35:32;;;;;;;33.47;25.80;;;3.00;99.90;;;;;;4998241;28;20520;-71
2022/03/02 04:37:59;;;;;;;29.33;24.13;;;3.00;99.90;;;;;;4995934;28;20473;-73
2022/03/02 04:40:28;;;;;;;27.03;24.20;;;3.00;99.90;;;;;;4998369;28;20971;-73
2022/03/02 04:42:55;;;;;;;27.27;24.50;;;2.90;99.90;;;;;;4991560;28;20475;-72
2022/03/02 04:45:25;;;;;;;26.70;23.80;;;2.90;99.90;;;;;;4997837;28;20473;-72
2022/03/02 04:47:52;;;;;;;26.37;23.87;;;2.90;99.90;;;;;;4996210;28;20467;-70
2022/03/02 04:50:19;;;;;;;32.53;23.30;;;2.90;99.90;;;;;;4993717;28;20477;-70
2022/03/02 04:52:46;;;;;;;27.27;24.63;;;2.90;99.90;;;;;;4997510;28;20463;-71
2022/03/02 04:55:13;;;;;;;27.03;24.40;;;2.90;99.90;;;;;;5000851;28;20464;-72
2022/03/02 04:57:57;;;;;;;26.90;23.97;;;2.80;99.90;;;;;;4998607;28;20489;-70
2022/03/02 05:00:26;;;;;;;27.53;23.80;;;2.80;99.90;;;;;;4996361;28;20474;-70
2022/03/02 05:02:53;;;;;;;25.80;23.10;;;2.80;99.90;;;;;;4979947;28;20474;-71
2022/03/02 05:05:22;;;;;;;26.30;23.93;;;2.80;99.90;;;;;;4963914;28;20468;-71
2022/03/02 05:07:50;;;;;;;26.73;23.87;;;2.80;99.90;;;;;;4967881;28;20477;-71
2022/03/02 05:10:18;;;;;;;27.13;24.33;;;2.90;99.90;;;;;;4965357;28;20471;-70
2022/03/02 05:12:46;;;;;;;26.97;24.30;;;2.90;99.90;;;;;;4968215;28;21026;-71
2022/03/02 05:15:14;;;;;;;26.23;23.50;;;2.90;99.90;;;;;;4968427;28;21135;-71
2022/03/02 05:17:42;;;;;;;26.73;24.27;;;2.90;99.90;;;;;;4967110;28;20502;-72
2022/03/02 05:20:11;;;;;;;28.10;25.33;;;2.90;99.90;;;;;;4966518;28;20474;-71
2022/03/02 05:22:38;;;;;;;26.80;24.30;;;2.90;99.90;;;;;;4966914;28;20474;-72
2022/03/02 05:25:08;;;;;;;25.90;23.60;;;2.90;99.90;;;;;;4968051;28;20470;-72
2022/03/02 05:27:35;;;;;;;27.43;24.60;;;2.90;99.90;;;;;;4967830;28;20467;-71
2022/03/02 05:30:04;;;;;;;35.57;25.40;;;2.90;99.90;;;;;;4967885;28;20469;-72
2022/03/02 05:32:31;;;;;;;30.53;24.27;;;2.90;99.90;;;;;;4969178;28;20462;-72
2022/03/02 05:34:58;;;;;;;26.63;24.07;;;2.90;99.90;;;;;;4970877;28;20462;-71
2022/03/02 05:37:25;;;;;;;26.47;24.03;;;3.00;99.90;;;;;;4970533;28;20494;-71
2022/03/02 05:39:52;;;;;;;25.97;23.53;;;3.00;99.90;;;;;;4971098;28;21167;-71
2022/03/02 05:42:18;;;;;;;25.40;23.10;;;3.00;99.90;;;;;;4972062;28;20480;-72
2022/03/02 05:44:46;;;;;;;25.97;23.67;;;2.90;99.90;;;;;;4970824;28;20466;-70
2022/03/02 05:47:16;;;;;;;27.87;25.10;;;2.90;99.90;;;;;;4970557;28;21210;-72
2022/03/02 05:49:42;;;;;;;25.07;22.90;;;3.00;99.90;;;;;;4971929;28;20501;-70
2022/03/02 05:52:10;;;;;;;26.43;23.93;;;2.90;99.90;;;;;;4971976;28;20474;-72
2022/03/02 05:54:36;;;;;;;26.80;24.13;;;2.90;99.90;;;;;;4970576;28;20469;-72
2022/03/02 05:57:04;;;;;;;26.13;24.00;;;2.90;99.90;;;;;;4971749;28;20890;-72
2022/03/02 05:59:31;;;;;;;26.60;24.30;;;2.90;99.90;;;;;;4969505;28;20462;-72
2022/03/02 06:01:58;;;;;;;26.37;24.07;;;2.80;99.90;;;;;;4969342;28;22131;-73
2022/03/02 06:04:26;;;;;;;26.03;23.73;;;2.80;99.90;;;;;;4969711;28;21069;-72
2022/03/02 06:06:53;;;;;;;27.53;24.67;;;2.80;99.90;;;;;;4969764;28;20465;-71
2022/03/02 06:09:35;;;;;;;29.83;25.00;;;2.70;99.90;;;;;;4971399;28;20485;-70
2022/03/02 06:12:02;;;;;;;27.87;25.17;;;2.70;99.90;;;;;;4970805;28;21014;-72
2022/03/02 06:14:30;;;;;;;31.83;24.30;;;2.70;99.90;;;;;;4971302;28;20459;-72
2022/03/02 06:16:57;;;;;;;26.80;24.33;;;2.70;99.90;;;;;;4968980;28;20481;-71
2022/03/02 06:19:26;;;;;;;33.30;24.10;;;2.70;99.90;;;;;;4971341;28;20461;-71
2022/03/02 06:21:53;;;;;;;28.37;25.57;;;2.70;99.90;;;;;;4971598;28;20457;-72
2022/03/02 06:24:21;;;;;;;26.60;24.43;;;2.60;99.90;;;;;;4972338;28;20502;-72
2022/03/02 06:26:47;;;;;;;30.60;24.07;;;2.60;99.90;;;;;;4971304;28;21107;-72
2022/03/02 06:29:14;;;;;;;27.63;24.63;;;2.60;99.90;;;;;;4971306;28;20503;-72
2022/03/02 06:31:41;;;;;;;38.23;24.97;;;2.60;99.90;;;;;;4973520;28;21132;-70
2022/03/02 06:34:08;;;;;;;28.83;25.83;;;2.70;99.90;;;;;;4972768;28;21046;-72
2022/03/02 06:36:37;;;;;;;28.37;25.20;;;2.60;99.90;;;;;;4970689;28;20522;-71
2022/03/02 06:39:04;;;;;;;28.70;25.80;;;2.60;99.90;;;;;;4972718;28;20470;-72
2022/03/02 06:41:43;;;;;;;28.43;25.20;;;2.60;99.90;;;;;;4971821;28;20481;-72
2022/03/02 06:44:19;;;;;;;34.13;26.13;;;2.50;99.90;;;;;;4970276;28;20474;-72
2022/03/02 06:46:51;;;;;;;28.67;25.67;;;2.60;99.90;;;;;;4970161;28;21240;-70
2022/03/02 06:49:25;;;;;;;35.90;25.90;;;2.70;99.90;;;;;;4970298;28;20461;-71
2022/03/02 06:51:58;;;;;;;28.23;25.23;;;2.70;99.90;;;;;;4990751;28;20470;-71
2022/03/02 06:54:29;;;;;;;33.73;25.50;;;2.70;99.90;;;;;;4999223;28;20476;-71
2022/03/02 06:56:58;;;;;;;41.70;26.90;;;2.80;99.90;;;;;;4978044;28;20596;-72
2022/03/02 06:59:40;;;;;;;27.97;25.40;;;2.80;99.90;;;;;;4970174;28;20471;-71
2022/03/02 07:02:08;;;;;;;32.70;26.00;;;2.80;99.90;;;;;;4968280;28;20923;-72
2022/03/02 07:04:39;;;;;;;32.10;25.90;;;2.90;99.90;;;;;;4968243;28;21150;-70
2022/03/02 07:07:09;;;;;;;27.00;24.40;;;2.90;99.90;;;;;;4967904;28;20475;-72
2022/03/02 07:09:36;;;;;;;27.07;24.27;;;2.90;99.90;;;;;;4968587;28;20478;-71
2022/03/02 07:12:06;;;;;;;31.17;25.93;;;3.00;99.90;;;;;;4969723;28;20949;-71
2022/03/02 07:14:36;;;;;;;28.70;25.57;;;3.10;99.90;;;;;;4966536;28;20576;-71
2022/03/02 07:17:05;;;;;;;33.93;25.07;;;3.10;99.90;;;;;;4965801;28;20582;-72
2022/03/02 07:19:32;;;;;;;29.60;25.70;;;3.20;99.90;;;;;;4966551;28;20478;-72
2022/03/02 07:22:04;;;;;;;29.47;26.50;;;3.30;99.90;;;;;;4968126;28;20870;-71
2022/03/02 07:24:39;;;;;;;37.10;26.70;;;3.30;99.90;;;;;;4967494;28;21083;-72
2022/03/02 07:27:06;;;;;;;30.70;27.50;;;3.40;99.90;;;;;;4966456;28;21027;-72
2022/03/02 07:29:36;;;;;;;29.50;26.70;;;3.50;99.90;;;;;;4967831;28;20509;-71
2022/03/02 07:32:04;;;;;;;57.70;27.93;;;3.50;99.90;;;;;;4968558;28;20801;-72
2022/03/02 07:34:32;;;;;;;44.53;26.93;;;3.60;99.90;;;;;;4969813;28;21333;-71
2022/03/02 07:37:00;;;;;;;48.20;26.00;;;3.60;99.90;;;;;;4965871;28;20608;-71
2022/03/02 07:39:27;;;;;;;29.93;26.20;;;3.60;99.90;;;;;;4969024;28;20983;-71
2022/03/02 07:41:57;;;;;;;35.00;26.23;;;3.70;99.90;;;;;;4967918;28;21035;-73
2022/03/02 07:44:24;;;;;;;32.53;24.90;;;3.70;99.90;;;;;;4967867;28;20472;-73
2022/03/02 07:47:06;;;;;;;33.40;23.73;;;3.70;99.90;;;;;;4967917;28;20474;-72
2022/03/02 07:49:33;;;;;;;35.07;25.97;;;3.80;99.90;;;;;;4966908;28;20982;-72
2022/03/02 07:52:03;;;;;;;31.20;25.97;;;3.80;99.90;;;;;;4966346;28;21144;-71
2022/03/02 07:54:37;;;;;;;29.90;26.40;;;3.80;99.90;;;;;;4966945;28;20469;-73
2022/03/02 07:57:06;;;;;;;28.20;25.70;;;4.00;99.90;;;;;;4962961;28;20497;-72
2022/03/02 07:59:37;;;;;;;29.30;25.10;;;4.00;99.90;;;;;;4967217;28;20510;-72
2022/03/02 08:02:06;;;;;;;28.07;25.57;;;4.10;99.90;;;;;;4966646;28;20595;-71
2022/03/02 08:04:33;;;;;;;28.73;25.30;;;4.10;99.90;;;;;;4965928;28;20478;-71
2022/03/02 08:07:00;;;;;;;38.13;25.97;;;4.10;99.90;;;;;;4967342;28;20471;-73
2022/03/02 08:09:27;;;;;;;28.33;25.30;;;4.20;99.90;;;;;;4966991;28;20490;-70
2022/03/02 08:11:54;;;;;;;33.17;27.20;;;4.30;99.90;;;;;;4966168;28;20477;-71
2022/03/02 08:14:24;;;;;;;30.93;26.33;;;4.40;99.90;;;;;;4969125;28;20457;-71
2022/03/02 08:16:52;;;;;;;37.27;25.43;;;4.40;99.90;;;;;;4965028;28;21432;-73
2022/03/02 08:19:19;;;;;;;33.70;25.67;;;4.50;99.90;;;;;;4963052;28;20457;-73
2022/03/02 08:21:51;;;;;;;27.60;25.00;;;4.60;99.90;;;;;;4962865;28;20477;-73
2022/03/02 08:24:19;;;;;;;28.10;25.20;;;4.70;99.90;;;;;;4964686;28;21129;-73
2022/03/02 08:26:52;;;;;;;32.93;26.90;;;4.70;99.90;;;;;;4964813;28;21003;-73
2022/03/02 08:29:24;;;;;;;28.67;26.07;;;4.90;99.90;;;;;;4993993;28;20496;-72
2022/03/02 08:31:51;;;;;;;28.03;25.33;;;5.10;99.90;;;;;;4998061;28;20822;-72
2022/03/02 08:34:19;;;;;;;29.23;26.53;;;5.20;99.90;;;;;;4991543;28;20473;-73
2022/03/02 08:36:47;;;;;;;28.07;25.53;;;5.20;99.90;;;;;;4988038;28;20490;-72
2022/03/02 08:39:15;;;;;;;30.87;27.07;;;5.30;99.90;;;;;;4966449;28;20467;-72
2022/03/02 08:41:42;;;;;;;29.93;27.03;;;5.30;99.90;;;;;;4965103;28;20475;-72
2022/03/02 08:44:12;;;;;;;28.67;25.63;;;5.40;99.90;;;;;;4965154;28;21110;-73
2022/03/02 08:46:41;;;;;;;29.60;26.70;;;5.50;99.90;;;;;;4965361;28;20481;-72
2022/03/02 08:49:08;;;;;;;28.43;25.70;;;5.60;99.90;;;;;;4965925;28;20773;-73
2022/03/02 08:51:39;;;;;;;35.70;27.23;;;5.70;99.90;;;;;;4964134;28;20466;-73
2022/03/02 08:54:06;;;;;;;40.97;26.73;;;5.90;99.90;;;;;;4965989;28;21233;-72
2022/03/02 08:56:35;;;;;;;29.00;26.13;;;5.90;99.90;;;;;;4965852;28;20766;-72
2022/03/02 08:59:04;;;;;;;28.43;25.90;;;6.00;99.90;;;;;;4963730;28;20503;-73
2022/03/02 09:01:32;;;;;;;28.97;26.17;;;6.20;99.90;;;;;;4965721;28;20459;-74
2022/03/02 09:04:02;;;;;;;29.37;26.57;;;6.40;99.90;;;;;;4966686;28;20851;-72
2022/03/02 09:06:29;;;;;;;35.20;26.40;;;6.60;99.90;;;;;;4965384;28;20477;-72
2022/03/02 09:08:56;;;;;;;29.93;26.97;;;6.70;99.90;;;;;;4965989;28;20483;-73
2022/03/02 09:11:23;;;;;;;29.33;26.27;;;6.80;99.90;;;;;;4964989;28;21442;-72
2022/03/02 09:13:50;;;;;;;29.50;26.10;;;6.90;99.90;;;;;;4965818;28;20471;-73
2022/03/02 09:16:18;;;;;;;30.30;27.17;;;7.10;99.90;;;;;;4965920;28;20459;-73
2022/03/02 09:18:48;;;;;;;29.37;26.53;;;7.20;99.90;;;;;;4965557;28;20552;-72
2022/03/02 09:21:20;;;;;;;28.77;26.07;;;7.30;99.90;;;;;;4965298;28;20462;-73
2022/03/02 09:23:48;;;;;;;29.30;26.60;;;7.40;99.90;;;;;;4964960;28;20510;-72
2022/03/02 09:26:18;;;;;;;27.40;25.00;;;7.50;99.90;;;;;;4994521;28;20471;-72
2022/03/02 09:28:47;;;;;;;28.40;26.00;;;7.50;99.90;;;;;;4986984;28;20468;-72
2022/03/02 09:31:17;;;;;;;35.57;25.23;;;7.60;99.50;;;;;;4963575;28;22221;-72
2022/03/02 09:33:48;;;;;;;28.93;26.10;;;7.60;99.30;;;;;;4986351;28;20468;-72
2022/03/02 09:36:21;;;;;;;27.00;24.70;;;7.70;99.10;;;;;;4964645;28;21837;-72
2022/03/02 09:38:50;;;;;;;27.57;24.77;;;7.80;98.60;;;;;;4965406;28;20981;-73
2022/03/02 09:41:24;;;;;;;26.57;24.47;;;8.00;98.50;;;;;;4965410;28;20475;-73
2022/03/02 09:43:55;;;;;;;27.57;25.33;;;8.10;99.10;;;;;;4964993;28;20651;-71
2022/03/02 09:46:31;;;;;;;27.07;24.97;;;8.20;97.70;;;;;;4965140;28;20886;-73
2022/03/02 09:49:08;;;;;;;26.57;24.57;;;8.30;97.60;;;;;;4963932;28;20477;-72
2022/03/02 09:51:38;;;;;;;28.60;25.97;;;8.40;98.20;;;;;;4965401;28;20520;-72
2022/03/02 09:54:06;;;;;;;29.70;26.73;;;8.40;97.30;;;;;;4964813;28;20478;-74
2022/03/02 09:56:35;;;;;;;28.07;25.47;;;8.60;98.80;;;;;;4963518;28;20481;-71
2022/03/02 09:59:04;;;;;;;27.13;24.93;;;8.80;97.90;;;;;;4971471;28;21028;-73
2022/03/02 10:01:33;;;;;;;27.90;25.23;;;9.00;97.40;;;;;;4966392;28;20782;-72
2022/03/02 10:04:13;;;;;;;29.27;26.97;;;9.00;95.50;;;;;;4966223;28;20466;-73
2022/03/02 10:06:44;;;;;;;28.20;26.00;;;9.10;97.00;;;;;;4965695;28;20478;-74
2022/03/02 10:09:12;;;;;;;26.33;24.23;;;9.20;95.80;;;;;;4995712;28;20846;-72
2022/03/02 10:11:41;;;;;;;28.27;25.70;;;9.30;94.90;;;;;;4995230;28;20472;-73
2022/03/02 10:14:09;;;;;;;28.80;26.43;;;9.40;95.50;;;;;;4965335;28;20497;-73
2022/03/02 10:16:43;;;;;;;27.27;25.10;;;9.60;95.00;;;;;;4966327;28;21031;-72
2022/03/02 10:19:20;;;;;;;27.83;25.50;;;10.40;94.10;;;;;;4969843;28;20628;-72
2022/03/02 10:22:02;;;;;;;28.37;25.40;;;11.40;92.50;;;;;;4966912;28;20570;-72
2022/03/02 10:24:32;;;;;;;26.77;24.77;;;12.00;90.20;;;;;;4970746;28;20489;-72
2022/03/02 10:27:05;;;;;;;26.67;23.63;;;12.90;90.40;;;;;;4966512;28;20509;-73
2022/03/02 10:29:40;;;;;;;27.30;24.90;;;13.70;83.40;;;;;;4993516;28;21240;-72
2022/03/02 10:32:11;;;;;;;26.00;24.00;;;14.00;79.60;;;;;;4967895;28;20552;-72
2022/03/02 10:34:39;;;;;;;27.40;25.40;;;14.30;79.30;;;;;;4966237;28;20470;-73
2022/03/02 10:37:28;;;;;;;27.23;24.73;;;14.60;71.00;;;;;;4964425;28;20600;-72
2022/03/02 10:39:58;;;;;;;26.20;24.07;;;14.80;69.20;;;;;;4969330;28;20477;-72
2022/03/02 10:42:28;;;;;;;27.23;25.03;;;15.10;68.00;;;;;;4969079;28;21523;-72
2022/03/02 10:45:05;;;;;;;26.30;23.87;;;15.00;66.90;;;;;;4970412;28;20648;-73
2022/03/02 10:47:33;;;;;;;26.60;24.60;;;15.20;68.30;;;;;;4969451;28;21058;-73
2022/03/02 10:50:02;;;;;;;27.13;24.60;;;15.40;65.20;;;;;;4968881;28;20470;-73
2022/03/02 10:52:33;;;;;;;26.57;24.47;;;14.50;64.10;;;;;;4969480;28;20460;-74
2022/03/02 10:55:06;;;;;;;26.20;24.27;;;15.00;67.00;;;;;;4968486;28;20462;-72
2022/03/02 10:57:34;;;;;;;27.17;24.87;;;14.90;60.70;;;;;;4969874;28;21036;-72
2022/03/02 11:00:05;;;;;;;26.30;24.30;;;14.30;59.00;;;;;;4969132;28;20480;-72
2022/03/02 11:02:38;;;;;;;26.90;24.83;;;13.50;60.40;;;;;;4968981;28;20479;-72
2022/03/02 11:05:09;;;;;;;27.13;24.93;;;13.80;59.30;;;;;;4968971;28;20470;-72
2022/03/02 11:07:38;;;;;;;25.33;23.40;;;14.20;61.30;;;;;;4968907;28;20802;-72
2022/03/02 11:10:08;;;;;;;27.17;24.87;;;15.10;58.20;;;;;;4968872;28;20492;-73
2022/03/02 11:12:35;;;;;;;26.80;24.60;;;15.50;59.10;;;;;;4967409;28;20518;-72
2022/03/02 11:15:04;;;;;;;26.57;24.67;;;16.10;60.70;;;;;;4968500;28;20474;-74
2022/03/02 11:17:31;;;;;;;25.57;23.77;;;16.70;56.60;;;;;;4969357;28;20470;-73
2022/03/02 11:19:58;;;;;;;27.27;25.03;;;16.60;56.80;;;;;;4968023;28;20645;-73
2022/03/02 11:22:27;;;;;;;26.93;24.73;;;17.00;54.20;;;;;;4968746;28;20489;-72
2022/03/02 11:24:57;;;;;;;27.70;25.63;;;17.50;55.20;;;;;;4968514;28;20501;-74
2022/03/02 11:27:32;;;;;;;26.80;24.60;;;17.20;54.10;;;;;;4969020;28;20840;-73
2022/03/02 11:30:11;;;;;;;27.33;24.93;;;17.40;52.00;;;;;;4966472;28;20476;-74
2022/03/02 11:32:40;;;;;;;27.27;25.10;;;16.60;52.10;;;;;;4968721;28;20469;-73
2022/03/02 11:35:10;;;;;;;26.50;24.70;;;16.60;50.20;;;;;;4966921;28;20984;-72
2022/03/02 11:37:38;;;;;;;25.90;23.87;;;16.90;50.90;;;;;;4967839;28;20564;-73
2022/03/02 11:40:09;;;;;;;25.03;22.77;;;16.80;52.70;;;;;;4967978;28;20573;-72
2022/03/02 11:42:38;;;;;;;26.13;24.10;;;16.70;50.30;;;;;;4968007;28;20470;-73
2022/03/02 11:45:07;;;;;;;27.73;23.70;;;16.40;49.30;;;;;;4968061;28;20819;-72
2022/03/02 11:47:36;;;;;;;26.20;23.97;;;16.50;50.10;;;;;;4967862;28;20973;-74
2022/03/02 11:50:05;;;;;;;26.57;24.13;;;15.80;49.60;;;;;;4967179;28;20481;-72
2022/03/02 11:52:34;;;;;;;27.43;25.07;;;15.80;51.40;;;;;;4984918;28;20492;-72
2022/03/02 11:55:06;;;;;;;25.07;23.33;;;16.60;52.70;;;;;;4970129;28;20466;-73
2022/03/02 11:57:42;;;;;;;26.00;23.40;;;18.10;51.00;;;;;;4979268;28;20558;-73
2022/03/02 12:00:14;;;;;;;25.50;23.80;;;17.30;49.20;;;;;;4994270;28;20498;-73
2022/03/02 12:02:44;;;;;;;24.63;22.83;;;17.40;49.50;;;;;;4998372;28;20896;-74
2022/03/02 12:05:11;;;;;;;26.63;24.10;;;17.90;49.60;;;;;;4980226;28;20466;-73
2022/03/02 12:07:40;;;;;;;24.63;22.83;;;18.50;48.40;;;;;;4963960;28;20500;-73
2022/03/02 12:10:20;;;;;;;25.80;23.70;;;18.20;48.20;;;;;;4965985;28;20502;-74
2022/03/02 12:12:50;;;;;;;25.10;23.30;;;18.10;46.50;;;;;;4968419;28;20475;-72
2022/03/02 12:15:17;;;;;;;24.87;23.00;;;18.20;46.40;;;;;;4968196;28;20489;-73
2022/03/02 12:17:44;;;;;;;24.37;22.77;;;18.80;44.80;;;;;;4966818;28;20477;-73
2022/03/02 12:20:14;;;;;;;26.70;23.60;;;18.70;45.50;;;;;;4966971;28;20588;-73
2022/03/02 12:22:44;;;;;;;24.70;23.00;;;18.90;44.50;;;;;;4968068;28;20482;-72
2022/03/02 12:25:13;;;;;;;25.70;23.50;;;18.60;43.80;;;;;;4967625;28;20520;-74
2022/03/02 12:27:42;;;;;;;23.60;21.83;;;18.70;43.00;;;;;;4968094;28;20470;-73
2022/03/02 12:30:12;;;;;;;26.37;24.17;;;19.40;43.60;;;;;;4967277;28;20502;-73
2022/03/02 12:32:43;;;;;;;25.20;23.30;;;19.70;41.00;;;;;;4966518;28;21146;-73
2022/03/02 12:35:13;;;;;;;26.07;24.27;;;19.60;41.10;;;;;;4966857;28;20478;-73
2022/03/02 12:37:41;;;;;;;26.13;23.40;;;19.30;41.70;;;;;;4966274;28;20478;-73
2022/03/02 12:40:11;;;;;;;25.33;23.20;;;19.30;40.20;;;;;;4966859;28;20494;-72
2022/03/02 12:42:39;;;;;;;26.83;24.27;;;19.10;41.40;;;;;;4966980;28;20553;-72